DAL45 EIDW-KJFK
Flight info
| Callsign | DAL45 |
|---|---|
| Flight time | N/A |
| Altitude | 36000 |
| Route | INKUR8E INKUR DCT MALOT/M081F360 DCT 54N020W 55N030W 55N040W 54N050W DCT NEEKO/N0463F360 N622E TAFFY/N0464F380 DCT ENE PARCH3 |
| Aircraft | A339/H-SADE1E2E3GHIJ3J5M1P2RWXY/LB2D1 |
Departure
| Time | 2026-05-06 16:30 |
|---|---|
| Airport | Dublin Airport (EIDW) |
Arrival
| Time | N/A |
|---|---|
| Airport | John F. Kennedy International Airport (KJFK) |
| Time | Latitude | Longitude | Altitude | Speed | Heading |
|---|---|---|---|---|---|
| 2026-05-06 15:54 | 53.42338 | -6.24561 | 217 ft | 0 kts | 135° |
| 2026-05-06 16:18 | 53.42346 | -6.24573 | 217 ft | 3 kts | 135° |
| 2026-05-06 16:18 | 53.42360 | -6.24597 | 220 ft | 3 kts | 135° |
| 2026-05-06 16:18 | 53.42372 | -6.24616 | 218 ft | 1 kts | 135° |
| 2026-05-06 16:18 | 53.42383 | -6.24636 | 219 ft | 3 kts | 153° |
| 2026-05-06 16:19 | 53.42396 | -6.24650 | 221 ft | 3 kts | 186° |
| 2026-05-06 16:19 | 53.42410 | -6.24649 | 219 ft | 3 kts | 223° |
| 2026-05-06 16:19 | 53.42424 | -6.24626 | 225 ft | 3 kts | 239° |
| 2026-05-06 16:19 | 53.42433 | -6.24597 | 218 ft | 2 kts | 243° |
| 2026-05-06 16:20 | 53.42438 | -6.24584 | 219 ft | 1 kts | 242° |
| 2026-05-06 16:20 | 53.42438 | -6.24582 | 219 ft | 0 kts | 242° |
| 2026-05-06 16:22 | 53.42438 | -6.24583 | 219 ft | 0 kts | 242° |
| 2026-05-06 16:22 | 53.42435 | -6.24594 | 219 ft | 2 kts | 242° |
| 2026-05-06 16:23 | 53.42428 | -6.24615 | 223 ft | 3 kts | 242° |
| 2026-05-06 16:23 | 53.42418 | -6.24647 | 219 ft | 4 kts | 244° |
| 2026-05-06 16:23 | 53.42405 | -6.24688 | 217 ft | 4 kts | 238° |
| 2026-05-06 16:23 | 53.42384 | -6.24732 | 221 ft | 5 kts | 231° |
| 2026-05-06 16:24 | 53.42361 | -6.24781 | 222 ft | 6 kts | 231° |
| 2026-05-06 16:24 | 53.42322 | -6.24846 | 225 ft | 10 kts | 224° |
| 2026-05-06 16:24 | 53.42265 | -6.24941 | 218 ft | 13 kts | 225° |
| 2026-05-06 16:24 | 53.42211 | -6.25083 | 224 ft | 16 kts | 251° |
| 2026-05-06 16:25 | 53.42210 | -6.25287 | 223 ft | 19 kts | 275° |
| 2026-05-06 16:25 | 53.42222 | -6.25528 | 224 ft | 22 kts | 274° |
| 2026-05-06 16:25 | 53.42235 | -6.25802 | 224 ft | 25 kts | 275° |
| 2026-05-06 16:25 | 53.42252 | -6.26107 | 217 ft | 27 kts | 275° |
| 2026-05-06 16:26 | 53.42271 | -6.26439 | 217 ft | 30 kts | 275° |
| 2026-05-06 16:26 | 53.42290 | -6.26796 | 217 ft | 32 kts | 275° |
| 2026-05-06 16:26 | 53.42311 | -6.27177 | 223 ft | 34 kts | 275° |
| 2026-05-06 16:26 | 53.42336 | -6.27578 | 224 ft | 35 kts | 277° |
| 2026-05-06 16:27 | 53.42359 | -6.27980 | 217 ft | 32 kts | 274° |
| 2026-05-06 16:27 | 53.42377 | -6.28360 | 223 ft | 34 kts | 275° |
| 2026-05-06 16:27 | 53.42402 | -6.28760 | 217 ft | 35 kts | 276° |
| 2026-05-06 16:27 | 53.42392 | -6.29023 | 221 ft | 16 kts | 243° |
| 2026-05-06 16:28 | 53.42299 | -6.29069 | 218 ft | 15 kts | 168° |
| 2026-05-06 16:28 | 53.42263 | -6.29056 | 222 ft | 2 kts | 165° |
| 2026-05-06 16:28 | 53.42244 | -6.29030 | 220 ft | 5 kts | 132° |
| 2026-05-06 16:28 | 53.42240 | -6.28968 | 221 ft | 7 kts | 94° |
| 2026-05-06 16:29 | 53.42231 | -6.28759 | 223 ft | 47 kts | 95° |
| 2026-05-06 16:29 | 53.42175 | -6.27764 | 223 ft | 122 kts | 96° |
| 2026-05-06 16:29 | 53.42098 | -6.26047 | 234 ft | 174 kts | 92° |
| 2026-05-06 16:29 | 53.42014 | -6.23898 | 676 ft | 187 kts | 97° |
| 2026-05-06 16:30 | 53.41872 | -6.21704 | 1335 ft | 197 kts | 98° |
| 2026-05-06 16:30 | 53.41764 | -6.20100 | 1684 ft | 210 kts | 98° |
| 2026-05-06 16:30 | 53.41646 | -6.16723 | 2345 ft | 230 kts | 95° |
| 2026-05-06 16:30 | 53.41493 | -6.13949 | 2651 ft | 245 kts | 98° |
| 2026-05-06 16:31 | 53.41297 | -6.11044 | 3003 ft | 258 kts | 98° |
| 2026-05-06 16:31 | 53.41099 | -6.08029 | 3561 ft | 261 kts | 97° |
| 2026-05-06 16:31 | 53.40911 | -6.04980 | 4115 ft | 265 kts | 97° |
| 2026-05-06 16:31 | 53.40979 | -6.01874 | 4627 ft | 271 kts | 75° |
| 2026-05-06 16:32 | 53.41831 | -5.99060 | 5205 ft | 273 kts | 49° |
| 2026-05-06 16:32 | 53.43327 | -5.97135 | 5809 ft | 274 kts | 23° |
| 2026-05-06 16:32 | 53.45155 | -5.96474 | 6371 ft | 274 kts | 357° |
| 2026-05-06 16:32 | 53.47039 | -5.96933 | 6937 ft | 274 kts | 345° |
| 2026-05-06 16:33 | 53.48899 | -5.97691 | 7518 ft | 276 kts | 345° |
| 2026-05-06 16:33 | 53.50791 | -5.98345 | 8106 ft | 278 kts | 348° |
| 2026-05-06 16:33 | 53.52711 | -5.98860 | 8693 ft | 280 kts | 347° |
| 2026-05-06 16:34 | 53.56561 | -6.00192 | 9890 ft | 285 kts | 347° |
| 2026-05-06 16:34 | 53.58527 | -6.00822 | 10289 ft | 294 kts | 347° |
| 2026-05-06 16:34 | 53.60595 | -6.01482 | 10459 ft | 311 kts | 347° |
| 2026-05-06 16:34 | 53.62781 | -6.02182 | 10612 ft | 327 kts | 347° |
| 2026-05-06 16:35 | 53.65048 | -6.02910 | 10964 ft | 335 kts | 347° |
| 2026-05-06 16:35 | 53.67350 | -6.03648 | 11503 ft | 337 kts | 347° |
| 2026-05-06 16:35 | 53.69663 | -6.04392 | 12010 ft | 340 kts | 346° |
| 2026-05-06 16:35 | 53.71914 | -6.05548 | 12528 ft | 339 kts | 332° |
| 2026-05-06 16:36 | 53.73889 | -6.07702 | 13036 ft | 338 kts | 316° |
| 2026-05-06 16:36 | 53.75486 | -6.10546 | 13554 ft | 338 kts | 309° |
| 2026-05-06 16:36 | 53.77063 | -6.13529 | 14048 ft | 341 kts | 310° |
| 2026-05-06 16:36 | 53.78662 | -6.16511 | 14519 ft | 343 kts | 310° |
| 2026-05-06 16:37 | 53.80272 | -6.19495 | 14989 ft | 345 kts | 310° |
| 2026-05-06 16:37 | 53.81898 | -6.22505 | 15446 ft | 348 kts | 310° |
| 2026-05-06 16:37 | 53.83538 | -6.25544 | 15872 ft | 351 kts | 310° |
| 2026-05-06 16:37 | 53.85186 | -6.28599 | 15980 ft | 351 kts | 310° |
| 2026-05-06 16:38 | 53.86829 | -6.31651 | 15998 ft | 351 kts | 310° |
| 2026-05-06 16:38 | 53.88454 | -6.34673 | 15999 ft | 351 kts | 310° |
| 2026-05-06 16:38 | 53.90095 | -6.37732 | 16001 ft | 351 kts | 310° |
| 2026-05-06 16:38 | 53.91747 | -6.40814 | 16237 ft | 354 kts | 310° |
| 2026-05-06 16:39 | 53.93295 | -6.44034 | 16758 ft | 352 kts | 299° |
| 2026-05-06 16:39 | 53.94202 | -6.47871 | 17220 ft | 352 kts | 281° |
| 2026-05-06 16:39 | 53.94301 | -6.52001 | 17666 ft | 354 kts | 262° |
| 2026-05-06 16:39 | 53.93578 | -6.56004 | 18109 ft | 358 kts | 244° |
| 2026-05-06 16:40 | 53.92211 | -6.59556 | 18507 ft | 362 kts | 236° |
| 2026-05-06 16:40 | 53.90760 | -6.63065 | 18866 ft | 365 kts | 237° |
| 2026-05-06 16:40 | 53.89313 | -6.66611 | 19257 ft | 367 kts | 237° |
| 2026-05-06 16:40 | 53.87860 | -6.70200 | 19632 ft | 371 kts | 237° |
| 2026-05-06 16:41 | 53.86397 | -6.73829 | 20004 ft | 373 kts | 237° |
| 2026-05-06 16:41 | 53.84924 | -6.77485 | 20390 ft | 377 kts | 237° |
| 2026-05-06 16:41 | 53.83441 | -6.81157 | 20767 ft | 380 kts | 237° |
| 2026-05-06 16:41 | 53.81938 | -6.84878 | 21102 ft | 384 kts | 237° |
| 2026-05-06 16:42 | 53.80421 | -6.88624 | 21486 ft | 387 kts | 237° |
| 2026-05-06 16:42 | 53.78894 | -6.92391 | 21856 ft | 390 kts | 237° |
| 2026-05-06 16:42 | 53.77352 | -6.96189 | 22240 ft | 393 kts | 237° |
| 2026-05-06 16:42 | 53.75814 | -6.99969 | 22625 ft | 396 kts | 237° |
| 2026-05-06 16:43 | 53.74242 | -7.03827 | 23010 ft | 399 kts | 237° |
| 2026-05-06 16:43 | 53.72663 | -7.07697 | 23402 ft | 402 kts | 237° |
| 2026-05-06 16:43 | 53.71063 | -7.11610 | 23750 ft | 405 kts | 237° |
| 2026-05-06 16:43 | 53.69466 | -7.15510 | 24117 ft | 407 kts | 237° |
| 2026-05-06 16:44 | 53.67858 | -7.19430 | 24461 ft | 409 kts | 237° |
| 2026-05-06 16:44 | 53.66225 | -7.23406 | 24806 ft | 411 kts | 237° |
| 2026-05-06 16:44 | 53.64593 | -7.27379 | 25152 ft | 413 kts | 237° |
| 2026-05-06 16:44 | 53.62946 | -7.31383 | 25420 ft | 418 kts | 237° |
| 2026-05-06 16:45 | 53.61348 | -7.35468 | 25748 ft | 418 kts | 244° |
| 2026-05-06 16:45 | 53.60290 | -7.39931 | 26087 ft | 415 kts | 258° |